sensor_id;sensor_type;location;lat;lon;timestamp;temperature;humidity
51815;DHT22;37874;53.158;6.766;2023-04-06T00:01:42;19.70;50.00
51815;DHT22;37874;53.158;6.766;2023-04-06T00:04:08;19.70;49.90
51815;DHT22;37874;53.158;6.766;2023-04-06T00:06:33;19.60;50.00
51815;DHT22;37874;53.158;6.766;2023-04-06T00:09:00;19.70;50.00
51815;DHT22;37874;53.158;6.766;2023-04-06T00:11:26;19.60;50.00
51815;DHT22;37874;53.158;6.766;2023-04-06T00:13:52;19.70;50.20
51815;DHT22;37874;53.158;6.766;2023-04-06T00:16:17;19.70;50.10
51815;DHT22;37874;53.158;6.766;2023-04-06T00:18:43;19.70;50.10
51815;DHT22;37874;53.158;6.766;2023-04-06T00:21:11;19.70;50.00
51815;DHT22;37874;53.158;6.766;2023-04-06T00:23:38;19.60;50.10
51815;DHT22;37874;53.158;6.766;2023-04-06T00:26:04;19.60;50.10
51815;DHT22;37874;53.158;6.766;2023-04-06T00:28:29;19.60;50.00
51815;DHT22;37874;53.158;6.766;2023-04-06T00:30:55;19.60;50.10
51815;DHT22;37874;53.158;6.766;2023-04-06T00:33:21;19.70;50.10
51815;DHT22;37874;53.158;6.766;2023-04-06T00:35:48;19.60;50.10
51815;DHT22;37874;53.158;6.766;2023-04-06T00:38:14;19.50;50.00
51815;DHT22;37874;53.158;6.766;2023-04-06T00:40:40;19.50;50.10
51815;DHT22;37874;53.158;6.766;2023-04-06T00:43:06;19.50;50.10
51815;DHT22;37874;53.158;6.766;2023-04-06T00:45:33;19.50;50.00
51815;DHT22;37874;53.158;6.766;2023-04-06T00:47:58;19.50;50.00
51815;DHT22;37874;53.158;6.766;2023-04-06T00:50:24;19.50;50.70
51815;DHT22;37874;53.158;6.766;2023-04-06T00:52:50;19.50;50.10
51815;DHT22;37874;53.158;6.766;2023-04-06T00:55:16;19.50;50.10
51815;DHT22;37874;53.158;6.766;2023-04-06T00:57:42;19.50;50.20
51815;DHT22;37874;53.158;6.766;2023-04-06T01:00:08;19.50;50.20
51815;DHT22;37874;53.158;6.766;2023-04-06T01:02:33;19.50;50.20
51815;DHT22;37874;53.158;6.766;2023-04-06T01:04:59;19.40;50.10
51815;DHT22;37874;53.158;6.766;2023-04-06T01:07:25;19.40;50.10
51815;DHT22;37874;53.158;6.766;2023-04-06T01:09:53;19.50;50.20
51815;DHT22;37874;53.158;6.766;2023-04-06T01:12:19;19.40;50.10
51815;DHT22;37874;53.158;6.766;2023-04-06T01:14:44;19.40;50.20
51815;DHT22;37874;53.158;6.766;2023-04-06T01:17:10;19.40;50.10
51815;DHT22;37874;53.158;6.766;2023-04-06T01:19:36;19.40;50.10
51815;DHT22;37874;53.158;6.766;2023-04-06T01:22:02;19.40;50.10
51815;DHT22;37874;53.158;6.766;2023-04-06T01:24:27;19.40;50.20
51815;DHT22;37874;53.158;6.766;2023-04-06T01:26:53;19.40;50.20
51815;DHT22;37874;53.158;6.766;2023-04-06T01:29:18;19.30;50.10
51815;DHT22;37874;53.158;6.766;2023-04-06T01:31:44;19.30;50.20
51815;DHT22;37874;53.158;6.766;2023-04-06T03:32:01;18.90;50.10
51815;DHT22;37874;53.158;6.766;2023-04-06T03:34:26;18.90;50.10
51815;DHT22;37874;53.158;6.766;2023-04-06T03:36:52;18.90;50.10
51815;DHT22;37874;53.158;6.766;2023-04-06T03:39:18;18.90;50.10
51815;DHT22;37874;53.158;6.766;2023-04-06T03:41:43;18.90;50.10
51815;DHT22;37874;53.158;6.766;2023-04-06T03:44:10;18.90;50.10
51815;DHT22;37874;53.158;6.766;2023-04-06T03:46:36;18.90;50.10
51815;DHT22;37874;53.158;6.766;2023-04-06T03:49:01;18.90;50.10
51815;DHT22;37874;53.158;6.766;2023-04-06T03:51:27;18.90;50.10
51815;DHT22;37874;53.158;6.766;2023-04-06T03:53:53;18.90;50.10
51815;DHT22;37874;53.158;6.766;2023-04-06T03:56:18;18.90;50.10
51815;DHT22;37874;53.158;6.766;2023-04-06T03:58:45;19.50;50.40
51815;DHT22;37874;53.158;6.766;2023-04-06T04:01:11;18.80;50.10
51815;DHT22;37874;53.158;6.766;2023-04-06T04:03:36;18.90;50.10
51815;DHT22;37874;53.158;6.766;2023-04-06T04:06:02;18.80;50.00
51815;DHT22;37874;53.158;6.766;2023-04-06T04:08:28;18.80;50.10
51815;DHT22;37874;53.158;6.766;2023-04-06T04:10:53;18.80;50.10
51815;DHT22;37874;53.158;6.766;2023-04-06T04:13:19;18.80;50.00
51815;DHT22;37874;53.158;6.766;2023-04-06T04:15:45;18.80;50.00
51815;DHT22;37874;53.158;6.766;2023-04-06T04:18:12;18.80;50.10
51815;DHT22;37874;53.158;6.766;2023-04-06T04:20:38;18.70;50.00
51815;DHT22;37874;53.158;6.766;2023-04-06T04:23:04;18.80;50.00
51815;DHT22;37874;53.158;6.766;2023-04-06T04:25:29;18.80;50.00
51815;DHT22;37874;53.158;6.766;2023-04-06T04:27:55;18.70;50.00
51815;DHT22;37874;53.158;6.766;2023-04-06T04:30:20;18.70;50.00
51815;DHT22;37874;53.158;6.766;2023-04-06T04:32:46;18.70;50.10
51815;DHT22;37874;53.158;6.766;2023-04-06T04:35:12;18.70;50.00
51815;DHT22;37874;53.158;6.766;2023-04-06T04:37:40;18.70;50.00
51815;DHT22;37874;53.158;6.766;2023-04-06T04:40:06;18.70;50.00
51815;DHT22;37874;53.158;6.766;2023-04-06T04:42:32;18.70;50.00
51815;DHT22;37874;53.158;6.766;2023-04-06T04:44:57;18.70;50.00
51815;DHT22;37874;53.158;6.766;2023-04-06T04:47:23;18.70;50.00
51815;DHT22;37874;53.158;6.766;2023-04-06T04:49:48;18.70;50.00
51815;DHT22;37874;53.158;6.766;2023-04-06T04:52:14;18.60;50.00
51815;DHT22;37874;53.158;6.766;2023-04-06T04:54:39;18.70;50.10
51815;DHT22;37874;53.158;6.766;2023-04-06T04:57:06;18.60;50.00
51815;DHT22;37874;53.158;6.766;2023-04-06T04:59:32;18.60;50.00
51815;DHT22;37874;53.158;6.766;2023-04-06T05:01:58;18.60;50.00
51815;DHT22;37874;53.158;6.766;2023-04-06T05:04:23;18.60;50.00
51815;DHT22;37874;53.158;6.766;2023-04-06T05:06:49;18.60;50.00
51815;DHT22;37874;53.158;6.766;2023-04-06T05:09:14;18.60;50.00
51815;DHT22;37874;53.158;6.766;2023-04-06T05:11:40;18.60;50.00
51815;DHT22;37874;53.158;6.766;2023-04-06T05:14:06;18.60;50.00
51815;DHT22;37874;53.158;6.766;2023-04-06T05:16:33;18.60;50.00
51815;DHT22;37874;53.158;6.766;2023-04-06T05:18:59;18.60;50.10
51815;DHT22;37874;53.158;6.766;2023-04-06T05:21:24;18.60;49.90
51815;DHT22;37874;53.158;6.766;2023-04-06T05:23:52;18.60;50.10
51815;DHT22;37874;53.158;6.766;2023-04-06T05:26:17;18.60;50.00
51815;DHT22;37874;53.158;6.766;2023-04-06T05:28:43;18.60;50.00
51815;DHT22;37874;53.158;6.766;2023-04-06T05:31:09;18.60;50.00
51815;DHT22;37874;53.158;6.766;2023-04-06T05:33:35;18.70;50.20
51815;DHT22;37874;53.158;6.766;2023-04-06T05:36:01;18.50;50.00
51815;DHT22;37874;53.158;6.766;2023-04-06T05:38:26;18.50;50.10
51815;DHT22;37874;53.158;6.766;2023-04-06T05:40:52;18.50;50.00
51815;DHT22;37874;53.158;6.766;2023-04-06T05:43:17;18.50;50.10
51815;DHT22;37874;53.158;6.766;2023-04-06T05:45:46;18.50;50.10
51815;DHT22;37874;53.158;6.766;2023-04-06T05:48:12;18.50;50.10
51815;DHT22;37874;53.158;6.766;2023-04-06T05:50:37;18.50;50.00
51815;DHT22;37874;53.158;6.766;2023-04-06T05:53:03;18.70;50.10
51815;DHT22;37874;53.158;6.766;2023-04-06T05:55:28;18.50;50.00
51815;DHT22;37874;53.158;6.766;2023-04-06T05:57:54;18.50;50.00
51815;DHT22;37874;53.158;6.766;2023-04-06T06:00:20;18.50;50.00
51815;DHT22;37874;53.158;6.766;2023-04-06T06:02:45;18.50;49.90
51815;DHT22;37874;53.158;6.766;2023-04-06T06:05:11;18.50;50.40
51815;DHT22;37874;53.158;6.766;2023-04-06T06:07:37;18.40;49.70
51815;DHT22;37874;53.158;6.766;2023-04-06T06:10:02;18.50;49.80
51815;DHT22;37874;53.158;6.766;2023-04-06T06:12:28;18.50;49.90
51815;DHT22;37874;53.158;6.766;2023-04-06T06:14:54;18.50;49.90
51815;DHT22;37874;53.158;6.766;2023-04-06T06:17:20;18.50;49.90
51815;DHT22;37874;53.158;6.766;2023-04-06T06:19:46;18.70;49.90
51815;DHT22;37874;53.158;6.766;2023-04-06T06:22:11;18.50;50.00
51815;DHT22;37874;53.158;6.766;2023-04-06T06:24:37;18.50;50.00
51815;DHT22;37874;53.158;6.766;2023-04-06T06:27:03;18.50;50.50
51815;DHT22;37874;53.158;6.766;2023-04-06T06:29:28;18.50;49.90
51815;DHT22;37874;53.158;6.766;2023-04-06T06:31:54;18.50;50.00
51815;DHT22;37874;53.158;6.766;2023-04-06T06:34:20;18.50;50.00
51815;DHT22;37874;53.158;6.766;2023-04-06T06:36:45;18.50;50.10
51815;DHT22;37874;53.158;6.766;2023-04-06T06:39:11;18.50;50.00
51815;DHT22;37874;53.158;6.766;2023-04-06T06:41:37;18.50;50.10
51815;DHT22;37874;53.158;6.766;2023-04-06T06:44:03;18.50;50.10
51815;DHT22;37874;53.158;6.766;2023-04-06T06:46:28;18.50;50.10
51815;DHT22;37874;53.158;6.766;2023-04-06T06:48:54;18.60;50.10
51815;DHT22;37874;53.158;6.766;2023-04-06T06:51:20;18.50;49.90
51815;DHT22;37874;53.158;6.766;2023-04-06T06:53:45;18.50;50.00
51815;DHT22;37874;53.158;6.766;2023-04-06T06:56:11;18.50;50.00
51815;DHT22;37874;53.158;6.766;2023-04-06T06:58:38;18.50;49.80
51815;DHT22;37874;53.158;6.766;2023-04-06T07:01:03;18.50;49.90
51815;DHT22;37874;53.158;6.766;2023-04-06T07:03:30;18.50;49.90
51815;DHT22;37874;53.158;6.766;2023-04-06T07:05:56;18.50;49.90
51815;DHT22;37874;53.158;6.766;2023-04-06T07:08:22;18.50;49.90
51815;DHT22;37874;53.158;6.766;2023-04-06T07:10:51;18.50;49.80
51815;DHT22;37874;53.158;6.766;2023-04-06T07:13:18;18.50;49.90
51815;DHT22;37874;53.158;6.766;2023-04-06T07:15:48;18.50;50.00
51815;DHT22;37874;53.158;6.766;2023-04-06T07:18:14;18.50;49.80
51815;DHT22;37874;53.158;6.766;2023-04-06T07:20:39;18.50;49.90
51815;DHT22;37874;53.158;6.766;2023-04-06T07:23:07;18.50;49.80
51815;DHT22;37874;53.158;6.766;2023-04-06T07:25:32;18.50;50.10
51815;DHT22;37874;53.158;6.766;2023-04-06T07:27:58;18.50;49.70
51815;DHT22;37874;53.158;6.766;2023-04-06T07:30:24;19.20;49.90
51815;DHT22;37874;53.158;6.766;2023-04-06T07:32:51;18.60;49.40
51815;DHT22;37874;53.158;6.766;2023-04-06T07:35:17;18.60;49.20
51815;DHT22;37874;53.158;6.766;2023-04-06T07:37:43;18.60;49.30
51815;DHT22;37874;53.158;6.766;2023-04-06T07:40:09;18.60;49.00
51815;DHT22;37874;53.158;6.766;2023-04-06T07:42:34;18.50;48.80
51815;DHT22;37874;53.158;6.766;2023-04-06T07:45:00;18.60;48.80
51815;DHT22;37874;53.158;6.766;2023-04-06T07:47:25;18.50;48.80
51815;DHT22;37874;53.158;6.766;2023-04-06T07:49:51;18.50;48.80
51815;DHT22;37874;53.158;6.766;2023-04-06T07:52:17;18.50;48.90
51815;DHT22;37874;53.158;6.766;2023-04-06T07:54:42;18.70;49.10
51815;DHT22;37874;53.158;6.766;2023-04-06T07:57:08;18.60;49.00
51815;DHT22;37874;53.158;6.766;2023-04-06T07:59:34;18.60;48.90
51815;DHT22;37874;53.158;6.766;2023-04-06T08:01:59;18.60;49.10
51815;DHT22;37874;53.158;6.766;2023-04-06T08:04:25;18.50;49.00
51815;DHT22;37874;53.158;6.766;2023-04-06T08:06:51;18.50;49.10
51815;DHT22;37874;53.158;6.766;2023-04-06T08:09:16;18.60;49.10
51815;DHT22;37874;53.158;6.766;2023-04-06T08:11:42;18.60;49.10
51815;DHT22;37874;53.158;6.766;2023-04-06T08:14:09;18.50;49.00
51815;DHT22;37874;53.158;6.766;2023-04-06T08:16:35;18.60;49.10
51815;DHT22;37874;53.158;6.766;2023-04-06T08:19:00;18.60;49.00
51815;DHT22;37874;53.158;6.766;2023-04-06T08:21:26;18.50;49.20
51815;DHT22;37874;53.158;6.766;2023-04-06T08:23:51;18.50;49.10
51815;DHT22;37874;53.158;6.766;2023-04-06T08:26:17;18.50;49.10
51815;DHT22;37874;53.158;6.766;2023-04-06T08:28:43;18.60;49.10
51815;DHT22;37874;53.158;6.766;2023-04-06T08:31:08;18.60;49.10
51815;DHT22;37874;53.158;6.766;2023-04-06T08:33:34;18.60;49.10
51815;DHT22;37874;53.158;6.766;2023-04-06T08:36:12;18.60;49.10
51815;DHT22;37874;53.158;6.766;2023-04-06T08:38:38;18.60;49.10
51815;DHT22;37874;53.158;6.766;2023-04-06T08:41:11;18.60;49.10
51815;DHT22;37874;53.158;6.766;2023-04-06T08:43:47;18.60;49.10
51815;DHT22;37874;53.158;6.766;2023-04-06T08:46:13;18.60;49.00
51815;DHT22;37874;53.158;6.766;2023-04-06T08:48:40;18.60;49.00
51815;DHT22;37874;53.158;6.766;2023-04-06T08:51:06;18.60;49.00
51815;DHT22;37874;53.158;6.766;2023-04-06T08:53:31;18.60;49.00
51815;DHT22;37874;53.158;6.766;2023-04-06T08:55:58;18.60;48.90
51815;DHT22;37874;53.158;6.766;2023-04-06T08:58:26;18.60;48.90
51815;DHT22;37874;53.158;6.766;2023-04-06T09:00:53;18.60;48.80
51815;DHT22;37874;53.158;6.766;2023-04-06T09:03:20;18.60;48.80
51815;DHT22;37874;53.158;6.766;2023-04-06T09:05:47;18.60;48.70
51815;DHT22;37874;53.158;6.766;2023-04-06T09:08:13;18.60;48.70
51815;DHT22;37874;53.158;6.766;2023-04-06T09:10:40;18.70;48.70
51815;DHT22;37874;53.158;6.766;2023-04-06T09:13:07;18.60;48.60
51815;DHT22;37874;53.158;6.766;2023-04-06T09:15:33;18.70;48.60
51815;DHT22;37874;53.158;6.766;2023-04-06T09:17:58;18.70;48.70
51815;DHT22;37874;53.158;6.766;2023-04-06T09:20:25;18.70;49.10
51815;DHT22;37874;53.158;6.766;2023-04-06T11:26:30;19.70;47.10
51815;DHT22;37874;53.158;6.766;2023-04-06T11:28:55;19.70;46.80
51815;DHT22;37874;53.158;6.766;2023-04-06T11:31:25;19.70;46.90
51815;DHT22;37874;53.158;6.766;2023-04-06T11:33:56;19.70;46.90
51815;DHT22;37874;53.158;6.766;2023-04-06T11:36:22;19.70;46.90
51815;DHT22;37874;53.158;6.766;2023-04-06T11:38:47;19.80;46.80
51815;DHT22;37874;53.158;6.766;2023-04-06T11:41:13;19.80;46.90
51815;DHT22;37874;53.158;6.766;2023-04-06T11:43:47;19.80;46.80
51815;DHT22;37874;53.158;6.766;2023-04-06T11:46:17;19.90;47.00
51815;DHT22;37874;53.158;6.766;2023-04-06T11:48:46;19.80;46.90
51815;DHT22;37874;53.158;6.766;2023-04-06T11:51:12;19.80;47.50
51815;DHT22;37874;53.158;6.766;2023-04-06T11:53:46;19.70;46.80
51815;DHT22;37874;53.158;6.766;2023-04-06T11:56:26;19.90;46.90
51815;DHT22;37874;53.158;6.766;2023-04-06T11:58:56;19.90;46.80
51815;DHT22;37874;53.158;6.766;2023-04-06T12:01:23;19.90;46.80
51815;DHT22;37874;53.158;6.766;2023-04-06T12:03:49;19.90;46.70
51815;DHT22;37874;53.158;6.766;2023-04-06T12:06:15;20.00;46.70
51815;DHT22;37874;53.158;6.766;2023-04-06T12:08:41;20.00;46.50
51815;DHT22;37874;53.158;6.766;2023-04-06T12:11:06;20.10;46.60
51815;DHT22;37874;53.158;6.766;2023-04-06T12:13:32;20.10;46.50
51815;DHT22;37874;53.158;6.766;2023-04-06T12:15:58;20.20;46.40
51815;DHT22;37874;53.158;6.766;2023-04-06T12:18:23;20.20;46.40
51815;DHT22;37874;53.158;6.766;2023-04-06T12:20:49;20.20;46.40
51815;DHT22;37874;53.158;6.766;2023-04-06T12:23:14;20.20;46.40
51815;DHT22;37874;53.158;6.766;2023-04-06T12:25:41;20.20;46.40
51815;DHT22;37874;53.158;6.766;2023-04-06T12:28:07;20.10;46.40
51815;DHT22;37874;53.158;6.766;2023-04-06T12:30:34;20.10;46.50
51815;DHT22;37874;53.158;6.766;2023-04-06T12:33:00;20.10;46.50
51815;DHT22;37874;53.158;6.766;2023-04-06T12:35:26;20.10;46.50
51815;DHT22;37874;53.158;6.766;2023-04-06T12:37:52;20.10;46.40
51815;DHT22;37874;53.158;6.766;2023-04-06T12:40:18;20.10;46.50
51815;DHT22;37874;53.158;6.766;2023-04-06T12:42:43;20.20;46.50
51815;DHT22;37874;53.158;6.766;2023-04-06T12:45:11;20.10;46.40
51815;DHT22;37874;53.158;6.766;2023-04-06T12:47:37;20.10;46.60
51815;DHT22;37874;53.158;6.766;2023-04-06T12:50:06;20.10;46.60
51815;DHT22;37874;53.158;6.766;2023-04-06T12:52:32;20.10;46.60
51815;DHT22;37874;53.158;6.766;2023-04-06T12:55:01;20.10;46.60
51815;DHT22;37874;53.158;6.766;2023-04-06T12:57:27;20.10;46.60
51815;DHT22;37874;53.158;6.766;2023-04-06T12:59:52;20.20;46.60
51815;DHT22;37874;53.158;6.766;2023-04-06T13:02:18;20.20;46.60
51815;DHT22;37874;53.158;6.766;2023-04-06T13:04:45;20.20;46.70
51815;DHT22;37874;53.158;6.766;2023-04-06T13:07:11;20.10;46.70
51815;DHT22;37874;53.158;6.766;2023-04-06T13:09:37;20.10;46.70
51815;DHT22;37874;53.158;6.766;2023-04-06T13:12:02;20.10;46.90
51815;DHT22;37874;53.158;6.766;2023-04-06T13:14:28;20.10;46.90
51815;DHT22;37874;53.158;6.766;2023-04-06T13:16:54;20.10;46.90
51815;DHT22;37874;53.158;6.766;2023-04-06T13:19:20;20.00;46.90
51815;DHT22;37874;53.158;6.766;2023-04-06T13:21:45;20.10;47.10
51815;DHT22;37874;53.158;6.766;2023-04-06T13:24:11;20.10;47.10
51815;DHT22;37874;53.158;6.766;2023-04-06T13:26:36;20.10;47.10
51815;DHT22;37874;53.158;6.766;2023-04-06T13:29:02;20.10;47.00
51815;DHT22;37874;53.158;6.766;2023-04-06T13:31:28;20.10;47.00
51815;DHT22;37874;53.158;6.766;2023-04-06T13:33:54;20.20;47.00
51815;DHT22;37874;53.158;6.766;2023-04-06T13:36:20;20.10;47.10
51815;DHT22;37874;53.158;6.766;2023-04-06T13:38:46;20.20;47.20
51815;DHT22;37874;53.158;6.766;2023-04-06T13:41:20;20.30;47.30
51815;DHT22;37874;53.158;6.766;2023-04-06T13:43:46;20.10;47.20
51815;DHT22;37874;53.158;6.766;2023-04-06T13:46:12;20.20;47.30
51815;DHT22;37874;53.158;6.766;2023-04-06T13:48:37;20.10;47.30
51815;DHT22;37874;53.158;6.766;2023-04-06T13:53:35;20.10;47.30
51815;DHT22;37874;53.158;6.766;2023-04-06T13:56:00;20.00;47.40
51815;DHT22;37874;53.158;6.766;2023-04-06T13:58:26;20.10;47.50
51815;DHT22;37874;53.158;6.766;2023-04-06T14:00:52;20.00;47.40
51815;DHT22;37874;53.158;6.766;2023-04-06T14:03:18;20.00;47.50
51815;DHT22;37874;53.158;6.766;2023-04-06T14:05:47;20.00;47.50
51815;DHT22;37874;53.158;6.766;2023-04-06T14:08:12;20.00;47.60
51815;DHT22;37874;53.158;6.766;2023-04-06T14:10:39;20.00;47.70
51815;DHT22;37874;53.158;6.766;2023-04-06T14:13:05;20.00;47.80
51815;DHT22;37874;53.158;6.766;2023-04-06T14:15:31;20.00;47.60
51815;DHT22;37874;53.158;6.766;2023-04-06T14:17:57;20.00;47.60
51815;DHT22;37874;53.158;6.766;2023-04-06T14:20:23;19.90;47.60
51815;DHT22;37874;53.158;6.766;2023-04-06T14:22:48;20.00;47.60
51815;DHT22;37874;53.158;6.766;2023-04-06T14:25:14;19.90;47.70
51815;DHT22;37874;53.158;6.766;2023-04-06T14:27:42;19.90;47.70
51815;DHT22;37874;53.158;6.766;2023-04-06T14:30:08;19.90;47.70
51815;DHT22;37874;53.158;6.766;2023-04-06T14:32:34;20.00;47.70
51815;DHT22;37874;53.158;6.766;2023-04-06T14:35:01;19.90;47.70
51815;DHT22;37874;53.158;6.766;2023-04-06T14:37:26;19.90;47.80
51815;DHT22;37874;53.158;6.766;2023-04-06T14:39:52;19.90;47.80
51815;DHT22;37874;53.158;6.766;2023-04-06T14:42:17;19.90;47.90
51815;DHT22;37874;53.158;6.766;2023-04-06T14:44:43;19.90;47.50
51815;DHT22;37874;53.158;6.766;2023-04-06T14:47:10;19.90;47.50
51815;DHT22;37874;53.158;6.766;2023-04-06T14:49:36;19.90;47.60
51815;DHT22;37874;53.158;6.766;2023-04-06T14:52:02;19.90;47.40
51815;DHT22;37874;53.158;6.766;2023-04-06T14:54:28;20.00;47.50
51815;DHT22;37874;53.158;6.766;2023-04-06T14:56:54;19.90;47.40
51815;DHT22;37874;53.158;6.766;2023-04-06T14:59:20;19.90;47.20
51815;DHT22;37874;53.158;6.766;2023-04-06T15:01:45;19.90;47.30
51815;DHT22;37874;53.158;6.766;2023-04-06T15:04:11;19.90;47.20
51815;DHT22;37874;53.158;6.766;2023-04-06T15:06:37;19.90;47.20
51815;DHT22;37874;53.158;6.766;2023-04-06T15:09:02;19.90;47.30
51815;DHT22;37874;53.158;6.766;2023-04-06T15:11:28;19.90;47.20
51815;DHT22;37874;53.158;6.766;2023-04-06T15:13:54;19.90;47.10
51815;DHT22;37874;53.158;6.766;2023-04-06T15:16:19;20.00;47.30
51815;DHT22;37874;53.158;6.766;2023-04-06T15:18:45;19.80;47.20
51815;DHT22;37874;53.158;6.766;2023-04-06T15:21:10;19.80;47.10
51815;DHT22;37874;53.158;6.766;2023-04-06T15:23:36;19.90;47.30
51815;DHT22;37874;53.158;6.766;2023-04-06T15:26:02;19.80;47.20
51815;DHT22;37874;53.158;6.766;2023-04-06T15:28:27;19.80;47.20
51815;DHT22;37874;53.158;6.766;2023-04-06T15:30:54;19.80;47.20
51815;DHT22;37874;53.158;6.766;2023-04-06T15:33:20;19.80;47.20
51815;DHT22;37874;53.158;6.766;2023-04-06T15:35:47;19.80;47.30
51815;DHT22;37874;53.158;6.766;2023-04-06T15:38:13;19.80;47.40
51815;DHT22;37874;53.158;6.766;2023-04-06T15:40:47;19.80;47.30
51815;DHT22;37874;53.158;6.766;2023-04-06T15:43:13;19.70;47.30
51815;DHT22;37874;53.158;6.766;2023-04-06T15:45:39;19.70;47.50
51815;DHT22;37874;53.158;6.766;2023-04-06T15:48:04;19.70;47.60
51815;DHT22;37874;53.158;6.766;2023-04-06T15:50:31;19.70;47.70
51815;DHT22;37874;53.158;6.766;2023-04-06T15:52:56;19.70;47.80
51815;DHT22;37874;53.158;6.766;2023-04-06T15:55:22;19.70;47.80
51815;DHT22;37874;53.158;6.766;2023-04-06T15:57:48;19.70;47.80
51815;DHT22;37874;53.158;6.766;2023-04-06T16:00:14;19.60;47.90
51815;DHT22;37874;53.158;6.766;2023-04-06T16:02:40;19.60;48.00
51815;DHT22;37874;53.158;6.766;2023-04-06T16:05:05;19.60;48.10
51815;DHT22;37874;53.158;6.766;2023-04-06T16:07:31;19.60;48.00
51815;DHT22;37874;53.158;6.766;2023-04-06T16:09:58;19.60;48.30
51815;DHT22;37874;53.158;6.766;2023-04-06T16:12:24;19.60;48.50
51815;DHT22;37874;53.158;6.766;2023-04-06T16:14:50;19.60;48.60
51815;DHT22;37874;53.158;6.766;2023-04-06T16:17:15;19.40;48.60
51815;DHT22;37874;53.158;6.766;2023-04-06T16:19:41;19.60;48.90
51815;DHT22;37874;53.158;6.766;2023-04-06T16:22:07;19.60;49.00
51815;DHT22;37874;53.158;6.766;2023-04-06T16:24:33;19.00;48.70
51815;DHT22;37874;53.158;6.766;2023-04-06T16:26:58;19.50;48.90
51815;DHT22;37874;53.158;6.766;2023-04-06T16:29:25;19.60;49.10
51815;DHT22;37874;53.158;6.766;2023-04-06T16:31:56;19.50;48.80
51815;DHT22;37874;53.158;6.766;2023-04-06T16:34:22;19.60;49.00
51815;DHT22;37874;53.158;6.766;2023-04-06T16:36:48;19.50;49.00
51815;DHT22;37874;53.158;6.766;2023-04-06T16:39:14;19.50;49.10
51815;DHT22;37874;53.158;6.766;2023-04-06T16:41:41;19.50;49.10
51815;DHT22;37874;53.158;6.766;2023-04-06T16:44:07;19.40;49.20
51815;DHT22;37874;53.158;6.766;2023-04-06T16:46:34;19.50;49.30
51815;DHT22;37874;53.158;6.766;2023-04-06T18:49:55;19.10;52.40
51815;DHT22;37874;53.158;6.766;2023-04-06T18:52:22;19.10;52.30
51815;DHT22;37874;53.158;6.766;2023-04-06T18:54:48;19.10;52.40
51815;DHT22;37874;53.158;6.766;2023-04-06T18:57:14;19.00;52.40
51815;DHT22;37874;53.158;6.766;2023-04-06T18:59:39;19.00;52.40
51815;DHT22;37874;53.158;6.766;2023-04-06T19:02:05;19.00;52.40
51815;DHT22;37874;53.158;6.766;2023-04-06T19:04:31;19.10;52.40
51815;DHT22;37874;53.158;6.766;2023-04-06T19:06:56;19.10;52.60
51815;DHT22;37874;53.158;6.766;2023-04-06T19:09:22;19.00;52.50
51815;DHT22;37874;53.158;6.766;2023-04-06T19:11:47;19.00;52.50
51815;DHT22;37874;53.158;6.766;2023-04-06T19:14:13;19.00;52.60
51815;DHT22;37874;53.158;6.766;2023-04-06T19:16:41;19.00;52.60
51815;DHT22;37874;53.158;6.766;2023-04-06T19:19:07;19.20;52.70
51815;DHT22;37874;53.158;6.766;2023-04-06T19:21:34;19.00;52.70
51815;DHT22;37874;53.158;6.766;2023-04-06T19:23:59;19.00;52.70
51815;DHT22;37874;53.158;6.766;2023-04-06T19:26:25;19.00;52.70
51815;DHT22;37874;53.158;6.766;2023-04-06T19:28:52;19.00;52.80
51815;DHT22;37874;53.158;6.766;2023-04-06T19:31:18;19.00;52.70
51815;DHT22;37874;53.158;6.766;2023-04-06T19:33:45;19.00;52.80
51815;DHT22;37874;53.158;6.766;2023-04-06T19:36:11;19.00;52.80
51815;DHT22;37874;53.158;6.766;2023-04-06T19:38:37;19.00;52.90
51815;DHT22;37874;53.158;6.766;2023-04-06T19:41:03;19.10;52.90
51815;DHT22;37874;53.158;6.766;2023-04-06T19:43:29;19.00;52.90
51815;DHT22;37874;53.158;6.766;2023-04-06T19:45:55;19.00;52.90
51815;DHT22;37874;53.158;6.766;2023-04-06T19:48:21;19.00;53.00
51815;DHT22;37874;53.158;6.766;2023-04-06T19:50:46;19.00;53.00
51815;DHT22;37874;53.158;6.766;2023-04-06T19:53:12;19.00;52.90
51815;DHT22;37874;53.158;6.766;2023-04-06T19:55:38;19.00;53.10
51815;DHT22;37874;53.158;6.766;2023-04-06T19:58:04;19.00;53.00
51815;DHT22;37874;53.158;6.766;2023-04-06T20:00:30;19.00;53.00
51815;DHT22;37874;53.158;6.766;2023-04-06T20:02:55;19.00;53.00
51815;DHT22;37874;53.158;6.766;2023-04-06T20:05:21;19.00;53.00
51815;DHT22;37874;53.158;6.766;2023-04-06T20:07:47;19.00;53.00
51815;DHT22;37874;53.158;6.766;2023-04-06T20:10:14;19.00;53.10
51815;DHT22;37874;53.158;6.766;2023-04-06T20:12:41;19.00;53.10
51815;DHT22;37874;53.158;6.766;2023-04-06T20:15:07;19.00;52.90
51815;DHT22;37874;53.158;6.766;2023-04-06T20:17:33;19.00;53.00
51815;DHT22;37874;53.158;6.766;2023-04-06T20:19:59;19.00;52.90
51815;DHT22;37874;53.158;6.766;2023-04-06T20:22:24;19.00;52.90
51815;DHT22;37874;53.158;6.766;2023-04-06T20:24:50;19.00;52.90
51815;DHT22;37874;53.158;6.766;2023-04-06T20:27:16;19.00;52.90
51815;DHT22;37874;53.158;6.766;2023-04-06T20:29:43;19.00;52.90
51815;DHT22;37874;53.158;6.766;2023-04-06T20:32:09;19.00;53.00
51815;DHT22;37874;53.158;6.766;2023-04-06T20:34:35;19.00;53.00
51815;DHT22;37874;53.158;6.766;2023-04-06T20:37:01;19.00;53.00
51815;DHT22;37874;53.158;6.766;2023-04-06T20:39:26;19.00;53.00
51815;DHT22;37874;53.158;6.766;2023-04-06T20:41:52;19.00;53.10
51815;DHT22;37874;53.158;6.766;2023-04-06T20:44:18;19.00;53.00
51815;DHT22;37874;53.158;6.766;2023-04-06T20:46:45;19.00;53.10
51815;DHT22;37874;53.158;6.766;2023-04-06T20:49:12;19.00;53.00
51815;DHT22;37874;53.158;6.766;2023-04-06T20:51:38;19.00;52.80
51815;DHT22;37874;53.158;6.766;2023-04-06T20:54:04;19.00;52.90
51815;DHT22;37874;53.158;6.766;2023-04-06T20:56:30;19.00;52.90
51815;DHT22;37874;53.158;6.766;2023-04-06T20:58:56;19.00;52.90
51815;DHT22;37874;53.158;6.766;2023-04-06T21:01:23;18.90;52.90
51815;DHT22;37874;53.158;6.766;2023-04-06T21:03:48;19.00;52.90
51815;DHT22;37874;53.158;6.766;2023-04-06T21:06:14;18.90;52.80
51815;DHT22;37874;53.158;6.766;2023-04-06T21:08:40;19.00;53.00
51815;DHT22;37874;53.158;6.766;2023-04-06T21:11:06;19.00;52.90
51815;DHT22;37874;53.158;6.766;2023-04-06T21:13:32;19.00;52.90
51815;DHT22;37874;53.158;6.766;2023-04-06T21:15:58;18.50;52.60
51815;DHT22;37874;53.158;6.766;2023-04-06T21:18:24;18.90;52.80
51815;DHT22;37874;53.158;6.766;2023-04-06T21:20:49;19.00;52.90
51815;DHT22;37874;53.158;6.766;2023-04-06T21:23:15;19.00;52.80
51815;DHT22;37874;53.158;6.766;2023-04-06T21:25:41;19.00;52.80
51815;DHT22;37874;53.158;6.766;2023-04-06T21:28:06;19.40;53.00